PWSweather.com
Personal Weather Stations
Station Observations
UISISLE1
Newport, Isle ofWight, ISLE OF WIGHT PO30 2JX

NewportIsle ofWight, ISLE OF WIGHT PO30 2JX

Lat: 50.72, Lon: -1.27

Elevation: 45

Station Type: Davis Vantage Pro Plus

http://www.isleofwightweather.co.uk

High Low Average
Temperature 87.3°F30.7°C 58.3°F14.6°C 73.1°F22.8°C
Dew Point 64.8°F18.2°C 52.3°F11.3°C 59.7°F15.4°C
Winds 5.5 mph 8.9 kmh Calm Calm 1.0 mph ESE1.6 kmh ESE
Wind Gusts 8.2 mph13.2 kmh -- 2.0 mph3.2 kmh
Humidity 84% 45% 64%
Pressure 29.90 in1012.5 mb 29.85 in1010.8 mb -
Precipitation 0.00 in0.0 mm - -
Hour Temp Dew Point Humidity Winds Wind Gusts Pressure Precip Precip Rate Daily Precip Total
12:00 AM 64.6°F18.1°C 53.0°F11.7°C 66% 0.3 mph ENE0.5 kmh ENE 2.0 mph3.2 kmh 29.90 in1012.5 mb - 0.00 in0.0 mm 0.00 in0.0 mm
12:15 AM 64.3°F17.9°C 53.1°F11.7°C 67% 0.4 mph ENE0.6 kmh ENE -- 29.90 in1012.5 mb - 0.00 in0.0 mm 0.00 in0.0 mm
12:30 AM 64.0°F17.8°C 53.2°F11.8°C 68% Calm Calm -- 29.89 in1012.2 mb - 0.00 in0.0 mm 0.00 in0.0 mm
12:45 AM 63.6°F17.6°C 52.8°F11.6°C 68% Calm Calm -- 29.89 in1012.2 mb - 0.00 in0.0 mm 0.00 in0.0 mm
01:00 AM 63.0°F17.2°C 53.1°F11.7°C 70% Calm Calm -- 29.89 in1012.2 mb - 0.00 in0.0 mm 0.00 in0.0 mm
01:15 AM 62.3°F16.8°C 52.8°F11.6°C 71% Calm Calm -- 29.89 in1012.2 mb - 0.00 in0.0 mm 0.00 in0.0 mm
01:30 AM 61.7°F16.5°C 53.0°F11.7°C 73% Calm Calm -- 29.88 in1011.9 mb - 0.00 in0.0 mm 0.00 in0.0 mm
01:45 AM 61.1°F16.2°C 52.8°F11.6°C 74% Calm Calm -- 29.87 in1011.5 mb - 0.00 in0.0 mm 0.00 in0.0 mm
02:00 AM 60.7°F15.9°C 52.7°F11.5°C 75% Calm Calm -- 29.87 in1011.5 mb - 0.00 in0.0 mm 0.00 in0.0 mm
02:15 AM 60.3°F15.7°C 52.7°F11.5°C 76% Calm Calm -- 29.87 in1011.5 mb - 0.00 in0.0 mm 0.00 in0.0 mm
02:30 AM 59.9°F15.5°C 52.7°F11.5°C 77% Calm Calm -- 29.87 in1011.5 mb - 0.00 in0.0 mm 0.00 in0.0 mm
02:45 AM 59.6°F15.3°C 52.7°F11.5°C 78% Calm Calm -- 29.87 in1011.5 mb - 0.00 in0.0 mm 0.00 in0.0 mm
03:00 AM 59.4°F15.2°C 52.8°F11.6°C 79% Calm Calm -- 29.87 in1011.5 mb - 0.00 in0.0 mm 0.00 in0.0 mm
03:15 AM 59.1°F15.1°C 52.6°F11.4°C 79% Calm Calm -- 29.87 in1011.5 mb - 0.00 in0.0 mm 0.00 in0.0 mm
03:30 AM 58.8°F14.9°C 52.3°F11.3°C 79% Calm Calm -- 29.87 in1011.5 mb - 0.00 in0.0 mm 0.00 in0.0 mm
03:45 AM 58.7°F14.8°C 52.5°F11.4°C 80% Calm Calm -- 29.87 in1011.5 mb - 0.00 in0.0 mm 0.00 in0.0 mm
04:00 AM 58.5°F14.7°C 52.4°F11.3°C 80% Calm Calm -- 29.87 in1011.5 mb - 0.00 in0.0 mm 0.00 in0.0 mm
04:15 AM 58.4°F14.7°C 52.6°F11.4°C 81% Calm Calm -- 29.87 in1011.5 mb - 0.00 in0.0 mm 0.00 in0.0 mm
04:30 AM 58.3°F14.6°C 52.9°F11.6°C 82% Calm Calm -- 29.88 in1011.9 mb - 0.00 in0.0 mm 0.00 in0.0 mm
04:45 AM 58.4°F14.7°C 53.3°F11.8°C 83% Calm Calm -- 29.88 in1011.9 mb - 0.00 in0.0 mm 0.00 in0.0 mm
05:00 AM 58.6°F14.8°C 53.5°F11.9°C 83% Calm Calm -- 29.88 in1011.9 mb - 0.00 in0.0 mm 0.00 in0.0 mm
05:15 AM 58.7°F14.8°C 53.5°F11.9°C 83% Calm Calm -- 29.87 in1011.5 mb - 0.00 in0.0 mm 0.00 in0.0 mm
05:30 AM 59.3°F15.2°C 54.5°F12.5°C 84% Calm Calm -- 29.88 in1011.9 mb - 0.00 in0.0 mm 0.00 in0.0 mm
05:45 AM 60.1°F15.6°C 55.2°F12.9°C 84% 2.0 mph NNE3.2 kmh NNE 3.1 mph5.0 kmh 29.88 in1011.9 mb - 0.00 in0.0 mm 0.00 in0.0 mm
06:00 AM 61.5°F16.4°C 55.3°F12.9°C 80% 0.2 mph NNE0.3 kmh NNE -- 29.87 in1011.5 mb - 0.00 in0.0 mm 0.00 in0.0 mm
06:15 AM 63.1°F17.3°C 55.8°F13.2°C 77% 2.2 mph NNE3.5 kmh NNE 4.1 mph6.6 kmh 29.87 in1011.5 mb - 0.00 in0.0 mm 0.00 in0.0 mm
06:30 AM 64.2°F17.9°C 55.8°F13.2°C 74% 1.7 mph NNE2.7 kmh NNE 5.1 mph8.2 kmh 29.88 in1011.9 mb - 0.00 in0.0 mm 0.00 in0.0 mm
06:45 AM 65.2°F18.4°C 56.7°F13.7°C 74% 3.2 mph NE5.1 kmh NE 4.1 mph6.6 kmh 29.88 in1011.9 mb - 0.00 in0.0 mm 0.00 in0.0 mm
07:00 AM 65.9°F18.8°C 57.0°F13.9°C 73% 3.0 mph NNE4.8 kmh NNE 4.1 mph6.6 kmh 29.88 in1011.9 mb - 0.00 in0.0 mm 0.00 in0.0 mm
07:15 AM 66.8°F19.3°C 57.5°F14.2°C 72% 1.8 mph ENE2.9 kmh ENE 5.1 mph8.2 kmh 29.87 in1011.5 mb - 0.00 in0.0 mm 0.00 in0.0 mm
07:30 AM 67.8°F19.9°C 58.1°F14.5°C 71% 1.9 mph ENE3.1 kmh ENE 3.0 mph4.8 kmh 29.87 in1011.5 mb - 0.00 in0.0 mm 0.00 in0.0 mm
07:45 AM 68.9°F20.5°C 58.7°F14.8°C 70% 3.6 mph NE5.8 kmh NE 5.1 mph8.2 kmh 29.87 in1011.5 mb - 0.00 in0.0 mm 0.00 in0.0 mm
08:00 AM 70.1°F21.2°C 58.6°F14.8°C 67% 3.4 mph E5.5 kmh E 5.0 mph8.0 kmh 29.87 in1011.5 mb - 0.00 in0.0 mm 0.00 in0.0 mm
08:15 AM 70.9°F21.6°C 59.0°F15.0°C 66% 2.6 mph NE4.2 kmh NE 4.1 mph6.6 kmh 29.87 in1011.5 mb - 0.00 in0.0 mm 0.00 in0.0 mm
08:30 AM 72.0°F22.2°C 59.6°F15.3°C 65% 3.7 mph N6.0 kmh N 4.1 mph6.6 kmh 29.87 in1011.5 mb - 0.00 in0.0 mm 0.00 in0.0 mm
08:45 AM 73.4°F23.0°C 59.6°F15.3°C 62% 4.0 mph N6.4 kmh N 6.2 mph10.0 kmh 29.87 in1011.5 mb - 0.00 in0.0 mm 0.00 in0.0 mm
09:00 AM 74.6°F23.7°C 59.8°F15.4°C 60% 1.4 mph NE2.3 kmh NE 2.1 mph3.4 kmh 29.87 in1011.5 mb - 0.00 in0.0 mm 0.00 in0.0 mm
09:15 AM 75.3°F24.1°C 60.5°F15.8°C 60% 2.2 mph NE3.5 kmh NE 6.2 mph10.0 kmh 29.87 in1011.5 mb - 0.00 in0.0 mm 0.00 in0.0 mm
09:30 AM 75.9°F24.4°C 60.5°F15.8°C 59% 2.3 mph NE3.7 kmh NE 3.1 mph5.0 kmh 29.87 in1011.5 mb - 0.00 in0.0 mm 0.00 in0.0 mm
09:45 AM 77.0°F25.0°C 60.6°F15.9°C 57% 3.1 mph ENE5.0 kmh ENE 6.0 mph9.7 kmh 29.87 in1011.5 mb - 0.00 in0.0 mm 0.00 in0.0 mm
10:00 AM 78.0°F25.6°C 61.0°F16.1°C 56% 2.8 mph NNE4.5 kmh NNE 5.0 mph8.0 kmh 29.87 in1011.5 mb - 0.00 in0.0 mm 0.00 in0.0 mm
10:15 AM 80.1°F26.7°C 62.0°F16.7°C 54% 2.7 mph NNE4.3 kmh NNE 7.0 mph11.3 kmh 29.87 in1011.5 mb - 0.00 in0.0 mm 0.00 in0.0 mm
10:30 AM 81.3°F27.4°C 62.5°F16.9°C 53% 4.3 mph ENE6.9 kmh ENE 7.0 mph11.3 kmh 29.87 in1011.5 mb - 0.00 in0.0 mm 0.00 in0.0 mm
10:45 AM 81.9°F27.7°C 62.5°F16.9°C 52% 3.5 mph NE5.6 kmh NE 8.0 mph12.9 kmh 29.87 in1011.5 mb - 0.00 in0.0 mm 0.00 in0.0 mm
11:00 AM 82.9°F28.3°C 62.4°F16.9°C 50% 4.8 mph ENE7.7 kmh ENE 6.2 mph10.0 kmh 29.86 in1011.2 mb - 0.00 in0.0 mm 0.00 in0.0 mm
11:15 AM 83.4°F28.6°C 63.3°F17.4°C 51% 4.6 mph ESE7.4 kmh ESE 8.0 mph12.9 kmh 29.86 in1011.2 mb - 0.00 in0.0 mm 0.00 in0.0 mm
11:30 AM 84.6°F29.2°C 63.3°F17.4°C 49% 3.7 mph ESE6.0 kmh ESE 6.0 mph9.7 kmh 29.86 in1011.2 mb - 0.00 in0.0 mm 0.00 in0.0 mm
11:45 AM 84.8°F29.3°C 63.5°F17.5°C 49% 3.3 mph ENE5.3 kmh ENE 8.0 mph12.9 kmh 29.87 in1011.5 mb - 0.00 in0.0 mm 0.00 in0.0 mm
12:00 PM 86.5°F30.3°C 63.8°F17.7°C 47% 2.5 mph ESE4.0 kmh ESE 5.0 mph8.0 kmh 29.87 in1011.5 mb - 0.00 in0.0 mm 0.00 in0.0 mm
12:15 PM 86.4°F30.2°C 63.8°F17.7°C 47% 3.7 mph N6.0 kmh N 5.0 mph8.0 kmh 29.87 in1011.5 mb - 0.00 in0.0 mm 0.00 in0.0 mm
12:30 PM 86.9°F30.5°C 63.0°F17.2°C 45% 5.5 mph ENE8.9 kmh ENE 8.0 mph12.9 kmh 29.86 in1011.2 mb - 0.00 in0.0 mm 0.00 in0.0 mm
12:45 PM 86.9°F30.5°C 64.8°F18.2°C 48% 1.7 mph NNE2.7 kmh NNE 5.0 mph8.0 kmh 29.86 in1011.2 mb - 0.00 in0.0 mm 0.00 in0.0 mm
01:00 PM 87.0°F30.6°C 64.3°F17.9°C 47% 5.3 mph E8.5 kmh E 8.2 mph13.2 kmh 29.86 in1011.2 mb - 0.00 in0.0 mm 0.00 in0.0 mm
01:15 PM 86.6°F30.3°C 64.0°F17.8°C 47% 3.4 mph NE5.5 kmh NE 7.0 mph11.3 kmh 29.85 in1010.8 mb - 0.00 in0.0 mm 0.00 in0.0 mm
01:30 PM 87.3°F30.7°C 64.6°F18.1°C 47% 5.1 mph ESE8.2 kmh ESE 8.0 mph12.9 kmh 29.86 in1011.2 mb - 0.00 in0.0 mm 0.00 in0.0 mm
01:45 PM 86.9°F30.5°C 64.2°F17.9°C 47% 1.3 mph SE2.1 kmh SE 2.0 mph3.2 kmh 29.86 in1011.2 mb - 0.00 in0.0 mm 0.00 in0.0 mm
02:00 PM 86.2°F30.1°C 64.2°F17.9°C 48% 1.6 mph SE2.6 kmh SE 3.0 mph4.8 kmh 29.86 in1011.2 mb - 0.00 in0.0 mm 0.00 in0.0 mm
02:15 PM 85.5°F29.7°C 63.5°F17.5°C 48% 2.8 mph S4.5 kmh S 4.0 mph6.4 kmh 29.86 in1011.2 mb - 0.00 in0.0 mm 0.00 in0.0 mm
02:30 PM 84.7°F29.3°C 64.0°F17.8°C 50% 2.3 mph SE3.7 kmh SE 4.0 mph6.4 kmh 29.86 in1011.2 mb - 0.00 in0.0 mm 0.00 in0.0 mm
02:45 PM 84.0°F28.9°C 63.9°F17.7°C 51% Calm Calm -- 29.86 in1011.2 mb - 0.00 in0.0 mm 0.00 in0.0 mm
03:00 PM 83.9°F28.8°C 64.4°F18.0°C 52% 0.9 mph S1.4 kmh S 2.0 mph3.2 kmh 29.86 in1011.2 mb - 0.00 in0.0 mm 0.00 in0.0 mm
03:15 PM 84.1°F28.9°C 64.0°F17.8°C 51% Calm Calm -- 29.86 in1011.2 mb - 0.00 in0.0 mm 0.00 in0.0 mm
03:30 PM 84.7°F29.3°C 64.0°F17.8°C 50% Calm Calm -- 29.85 in1010.8 mb - 0.00 in0.0 mm 0.00 in0.0 mm
03:45 PM 85.2°F29.6°C 63.9°F17.7°C 49% Calm Calm -- 29.86 in1011.2 mb - 0.00 in0.0 mm 0.00 in0.0 mm
04:00 PM 85.7°F29.8°C 64.3°F17.9°C 49% Calm Calm -- 29.85 in1010.8 mb - 0.00 in0.0 mm 0.00 in0.0 mm
04:15 PM 85.0°F29.4°C 64.8°F18.2°C 51% 1.6 mph NW2.6 kmh NW 3.1 mph5.0 kmh 29.85 in1010.8 mb - 0.00 in0.0 mm 0.00 in0.0 mm
04:30 PM 83.7°F28.7°C 64.2°F17.9°C 52% 1.6 mph WNW2.6 kmh WNW 2.1 mph3.4 kmh 29.86 in1011.2 mb - 0.00 in0.0 mm 0.00 in0.0 mm
04:45 PM 82.7°F28.2°C 63.3°F17.4°C 52% 1.8 mph NW2.9 kmh NW 4.1 mph6.6 kmh 29.86 in1011.2 mb - 0.00 in0.0 mm 0.00 in0.0 mm
05:00 PM 81.2°F27.3°C 63.0°F17.2°C 54% 1.7 mph W2.7 kmh W 3.1 mph5.0 kmh 29.86 in1011.2 mb - 0.00 in0.0 mm 0.00 in0.0 mm
05:15 PM 80.4°F26.9°C 63.2°F17.3°C 56% 1.8 mph W2.9 kmh W 2.1 mph3.4 kmh 29.86 in1011.2 mb - 0.00 in0.0 mm 0.00 in0.0 mm
05:30 PM 79.7°F26.5°C 62.6°F17.0°C 56% 0.3 mph W0.5 kmh W -- 29.87 in1011.5 mb - 0.00 in0.0 mm 0.00 in0.0 mm
05:45 PM 79.5°F26.4°C 62.9°F17.2°C 57% Calm Calm 1.0 mph1.6 kmh 29.87 in1011.5 mb - 0.00 in0.0 mm 0.00 in0.0 mm
06:00 PM 79.2°F26.2°C 63.6°F17.6°C 59% 3.4 mph NW5.5 kmh NW 4.1 mph6.6 kmh 29.87 in1011.5 mb - 0.00 in0.0 mm 0.00 in0.0 mm
06:15 PM 78.6°F25.9°C 63.5°F17.5°C 60% 2.0 mph NW3.2 kmh NW 2.1 mph3.4 kmh 29.87 in1011.5 mb - 0.00 in0.0 mm 0.00 in0.0 mm
06:30 PM 77.9°F25.5°C 62.9°F17.2°C 60% Calm Calm -- 29.87 in1011.5 mb - 0.00 in0.0 mm 0.00 in0.0 mm
06:45 PM 77.5°F25.3°C 63.0°F17.2°C 61% Calm Calm -- 29.87 in1011.5 mb - 0.00 in0.0 mm 0.00 in0.0 mm
07:00 PM 77.1°F25.1°C 62.6°F17.0°C 61% Calm Calm -- 29.87 in1011.5 mb - 0.00 in0.0 mm 0.00 in0.0 mm
07:15 PM 76.9°F24.9°C 63.3°F17.4°C 63% Calm Calm -- 29.87 in1011.5 mb - 0.00 in0.0 mm 0.00 in0.0 mm
07:30 PM 76.6°F24.8°C 64.0°F17.8°C 65% Calm Calm -- 29.87 in1011.5 mb - 0.00 in0.0 mm 0.00 in0.0 mm
07:45 PM 76.1°F24.5°C 63.9°F17.7°C 66% Calm Calm -- 29.87 in1011.5 mb - 0.00 in0.0 mm 0.00 in0.0 mm
08:00 PM 75.6°F24.2°C 63.9°F17.7°C 67% Calm Calm -- 29.87 in1011.5 mb - 0.00 in0.0 mm 0.00 in0.0 mm
08:15 PM 75.0°F23.9°C 63.7°F17.6°C 68% Calm Calm -- 29.87 in1011.5 mb - 0.00 in0.0 mm 0.00 in0.0 mm
08:30 PM 74.3°F23.5°C 63.5°F17.5°C 69% Calm Calm -- 29.88 in1011.9 mb - 0.00 in0.0 mm 0.00 in0.0 mm
08:45 PM 73.7°F23.2°C 63.3°F17.4°C 70% Calm Calm -- 29.89 in1012.2 mb - 0.00 in0.0 mm 0.00 in0.0 mm
09:00 PM 73.1°F22.8°C 63.1°F17.3°C 71% Calm Calm -- 29.89 in1012.2 mb - 0.00 in0.0 mm 0.00 in0.0 mm
09:15 PM 72.7°F22.6°C 63.1°F17.3°C 72% Calm Calm -- 29.89 in1012.2 mb - 0.00 in0.0 mm 0.00 in0.0 mm
09:30 PM 72.3°F22.4°C 62.8°F17.1°C 72% Calm Calm -- 29.89 in1012.2 mb - 0.00 in0.0 mm 0.00 in0.0 mm
09:45 PM 72.0°F22.2°C 62.5°F16.9°C 72% 0.1 mph NNE0.2 kmh NNE 1.0 mph1.6 kmh 29.89 in1012.2 mb - 0.00 in0.0 mm 0.00 in0.0 mm
10:00 PM 71.6°F22.0°C 62.5°F16.9°C 73% Calm Calm 2.1 mph3.4 kmh 29.89 in1012.2 mb - 0.00 in0.0 mm 0.00 in0.0 mm
10:15 PM 70.9°F21.6°C 60.6°F15.9°C 70% 1.8 mph NE2.9 kmh NE 3.0 mph4.8 kmh 29.88 in1011.9 mb - 0.00 in0.0 mm 0.00 in0.0 mm
10:30 PM 70.7°F21.5°C 59.6°F15.3°C 68% 0.8 mph ENE1.3 kmh ENE 3.0 mph4.8 kmh 29.88 in1011.9 mb - 0.00 in0.0 mm 0.00 in0.0 mm
10:45 PM 70.6°F21.4°C 59.9°F15.5°C 69% Calm Calm -- 29.89 in1012.2 mb - 0.00 in0.0 mm 0.00 in0.0 mm
11:00 PM 70.2°F21.2°C 59.6°F15.3°C 69% Calm Calm -- 29.89 in1012.2 mb - 0.00 in0.0 mm 0.00 in0.0 mm
11:15 PM 69.6°F20.9°C 59.4°F15.2°C 70% Calm Calm -- 29.88 in1011.9 mb - 0.00 in0.0 mm 0.00 in0.0 mm
11:30 PM 68.9°F20.5°C 59.1°F15.1°C 71% Calm Calm -- 29.88 in1011.9 mb - 0.00 in0.0 mm 0.00 in0.0 mm
11:45 PM 68.3°F20.2°C 58.9°F14.9°C 72% 0.1 mph ENE0.2 kmh ENE -- 29.88 in1011.9 mb - 0.00 in0.0 mm 0.00 in0.0 mm